^^
Datos históricos de la estación: Murcia-Puente Tocinos
Diario Informe para Mayo 14, 2022 Unidades:  Ingés    Métrico   Ambas
Diario Semanal Mensual Anual
  Máxima: Mínima: Promedio:
Temperatura: 82.9 °F 61.2 °F 71.2 °F
Punto de rocio: 58.1 °F 43.9 °F 52.5 °F
Humedad: 79.9% 28.8% 55%
Velocidad viento: 10.2mph 0mph 4.3mph
Racha viento: 19.6mph - -
Viento- - ENE
Presión: 30.1 in 30 in -
Precipitación: 0 in    
 
 
Tabla de datos para Mayo 14, 2022
Hora Temperatura Punto de rocio Presión Viento Velocidad viento Racha viento Humedad Intensidad lluvia(por hora) Nubes
00:04 66.4 °F 57.6 °F 30.1 in NE 2.1 mph 4.6 mph 73% 0 in
00:09 66.4 °F 57.6 °F 30.1 in NE 2 mph 3.5 mph 73% 0 in
00:14 66.4 °F 57.6 °F 30.1 in NE 2.4 mph 3.5 mph 73% 0 in
00:19 66.2 °F 57 °F 30.1 in NE 2.4 mph 3.5 mph 72.1% 0 in
00:24 66.4 °F 56.8 °F 30.1 in NNE 2.1 mph 4.7 mph 71.6% 0 in
00:29 66.2 °F 57.4 °F 30.1 in NNE 2 mph 5.2 mph 73% 0 in
00:34 66 °F 57 °F 30.1 in NE 3 mph 5.9 mph 73% 0 in
00:39 65.8 °F 56.5 °F 30.1 in NE 3.1 mph 4.7 mph 71.9% 0 in
00:44 65.8 °F 56.8 °F 30.1 in NNE 3.1 mph 5.8 mph 72.6% 0 in
00:49 65.8 °F 57.2 °F 30.1 in NE 3.1 mph 4.6 mph 74% 0 in
00:54 65.7 °F 57.4 °F 30.1 in NE 3.1 mph 4.6 mph 74.6% 0 in
00:59 65.7 °F 57.4 °F 30.1 in NE 3.1 mph 5.8 mph 75.1% 0 in
01:04 65.5 °F 57.7 °F 30.1 in NE 3.1 mph 3.6 mph 76% 0 in
01:09 65.3 °F 57.6 °F 30.1 in NE 3.1 mph 4.6 mph 76% 0 in
01:14 65.1 °F 57.4 °F 30.1 in NE 2.5 mph 4.7 mph 76% 0 in
01:19 65.1 °F 57.6 °F 30.1 in NNE 2.4 mph 4.6 mph 76.7% 0 in
01:24 64.9 °F 57.4 °F 30.1 in NNE 3 mph 4.6 mph 76.4% 0 in
01:29 64.9 °F 57.2 °F 30.1 in NE 3.1 mph 5.2 mph 76.1% 0 in
01:34 64.8 °F 56.3 °F 30.1 in NE 2.1 mph 4.6 mph 74.3% 0 in
01:39 64.6 °F 55.4 °F 30.1 in ENE 2 mph 4.6 mph 72.2% 0 in
01:44 64.6 °F 55 °F 30.1 in Este 2 mph 4.6 mph 71.4% 0 in
01:49 64.6 °F 55 °F 30.1 in Este 2 mph 3.6 mph 71% 0 in
01:54 64.6 °F 54.5 °F 30.1 in SE 2.4 mph 5.9 mph 69.9% 0 in
01:59 64.4 °F 53.2 °F 30.1 in SE 2.4 mph 5.8 mph 67.2% 0 in
02:04 64.2 °F 52.9 °F 30.1 in ESE 3.1 mph 4.6 mph 66.7% 0 in
02:09 64.2 °F 53.1 °F 30.1 in ESE 3.1 mph 1.4 mph 67% 0 in
02:14 64.2 °F 53.1 °F 30.1 in ESE 0.4 mph 1.4 mph 67% 0 in
02:19 64.4 °F 53.4 °F 30.1 in Calm   3.6 mph 67.6% 0 in
02:24 64.4 °F 54.3 °F 30.1 in NE 1.2 mph 4 mph 69.8% 0 in
02:29 64 °F 53.8 °F 30.1 in NE 1.4 mph 4.6 mph 69.3% 0 in
02:34 64 °F 54.5 °F 30.1 in NE 2.8 mph 3.5 mph 71.1% 0 in
02:39 63.9 °F 54.5 °F 30.1 in NE 2.9 mph 2.9 mph 71.3% 0 in
02:43 63.9 °F 54.9 °F 30.1 in NE 1.6 mph 2.3 mph 72.5% 0 in
02:49 63.9 °F 54.9 °F 30.1 in NE 1.4 mph 1.4 mph 72.6% 0 in
02:54 63.9 °F 55 °F 30.1 in NE 0.1 mph 2.3 mph 73% 0 in
02:59 63.9 °F 54.9 °F 30.1 in Calm   1.4 mph 72.6% 0 in
03:04 63.9 °F 54.9 °F 30.1 in Calm   2.4 mph 72.7% 0 in
03:09 63.9 °F 55 °F 30.1 in Calm   2.9 mph 73% 0 in
03:14 63.7 °F 54.5 °F 30.1 in NE 1.6 mph 2.3 mph 72.2% 0 in
03:19 63.5 °F 54 °F 30.1 in NE 1.8 mph   71% 0 in
03:24 63.3 °F 54 °F 30.1 in NE 0.2 mph   71.3% 0 in
03:29 63.5 °F 54.3 °F 30.1 in Calm     72% 0 in
03:34 63.5 °F 54.3 °F 30.1 in Calm     72% 0 in
03:39 63.5 °F 54.3 °F 30.1 in Calm   2.3 mph 71.9% 0 in
03:44 63.5 °F 53.8 °F 30.1 in Calm   3.6 mph 70.4% 0 in
03:49 63.1 °F 52.9 °F 30.1 in Calm   4.6 mph 69.1% 0 in
03:54 63 °F 53.1 °F 30.1 in ESE 2.5 mph 3.6 mph 69.9% 0 in
03:59 63 °F 53.1 °F 30.1 in ESE 2.9 mph 3.1 mph 70% 0 in
04:04 63.1 °F 53.2 °F 30.1 in ESE 1.9 mph 3.6 mph 70% 0 in
04:09 63 °F 53.1 °F 30.1 in Este 1.8 mph 4.6 mph 70% 0 in
04:14 63 °F 52.9 °F 30.1 in Este 2.4 mph 3.6 mph 70% 0 in
04:19 62.8 °F 53.1 °F 30.1 in Este 2.4 mph 2.9 mph 70.6% 0 in
04:24 62.8 °F 53.2 °F 30.1 in ESE 2.1 mph 2.9 mph 71% 0 in
04:29 62.8 °F 53.1 °F 30.1 in ESE 2 mph 4.6 mph 70.7% 0 in
04:34 62.4 °F 52.5 °F 30.1 in ESE 2.4 mph 4.6 mph 70% 0 in
04:39 62.4 °F 52.7 °F 30.1 in SE 2.4 mph 3.5 mph 70.6% 0 in
04:44 62.4 °F 52.9 °F 30.1 in SE 1.9 mph 3.5 mph 71% 0 in
04:49 62.4 °F 52.9 °F 30.1 in SE 1.8 mph 3.6 mph 71% 0 in
04:54 62.4 °F 52.7 °F 30.1 in Este 2 mph 4.7 mph 70.6% 0 in
04:59 62.2 °F 52.3 °F 30.1 in Este 2 mph 4.6 mph 70.2% 0 in
05:04 62.1 °F 52.5 °F 30.1 in Sur 2.4 mph 3.5 mph 70.8% 0 in
05:09 61.9 °F 52.3 °F 30.1 in Sur 2.4 mph 2.3 mph 71% 0 in
05:14 61.9 °F 52.3 °F 30.1 in Sur 0.2 mph 3.6 mph 71% 0 in
05:19 61.7 °F 52.3 °F 30.1 in Calm   3.5 mph 71% 0 in
05:24 61.9 °F 52.3 °F 30.1 in Sur 1.6 mph 2.3 mph 71% 0 in
05:29 61.9 °F 52.7 °F 30.1 in SSE 1.8 mph 2.9 mph 71.5% 0 in
05:34 61.7 °F 52.5 °F 30.1 in NE 1.4 mph 3.5 mph 71.7% 0 in
05:39 61.5 °F 52.3 °F 30.1 in NE 1.4 mph 3.5 mph 72% 0 in
05:44 61.5 °F 52.3 °F 30.1 in NE 1.7 mph 1.8 mph 72% 0 in
05:49 61.3 °F 52.5 °F 30.1 in NE 1.8 mph 2.4 mph 73% 0 in
05:54 61.3 °F 52.5 °F 30.1 in NE 0.2 mph 2.9 mph 73% 0 in
05:59 61.3 °F 52.5 °F 30.1 in Calm   2.4 mph 73% 0 in
06:04 61.2 °F 52.3 °F 30.1 in NE 1.4 mph 2.4 mph 73% 0 in
06:09 61.2 °F 52.3 °F 30.1 in NE 1.4 mph 2.9 mph 73% 0 in
06:14 61.2 °F 52.7 °F 30.1 in NE 1.4 mph 2.3 mph 73.9% 0 in
06:19 61.2 °F 52.7 °F 30.1 in NE 1.4 mph 2.3 mph 74% 0 in
06:24 61.2 °F 53.1 °F 30.1 in NE 0.2 mph 2.3 mph 74.6% 0 in
06:29 61.2 °F 53.2 °F 30.1 in Calm   2.4 mph 75% 0 in
06:34 61.2 °F 52.9 °F 30.1 in Calm   3.6 mph 74.1% 0 in
06:39 61.2 °F 52.9 °F 30.1 in Calm   3.6 mph 74% 0 in
06:44 61.2 °F 53.1 °F 30.1 in SE 2.2 mph 3.6 mph 74.6% 0 in
06:49 61.2 °F 53.2 °F 30.1 in SE 2.4 mph 4 mph 75% 0 in
06:54 61.2 °F 53.4 °F 30.1 in Este 2.4 mph 4.6 mph 76% 0 in
06:59 61.2 °F 53.6 °F 30.1 in SSE 2.4 mph 4.6 mph 76.1% 0 in
07:04 61.2 °F 54 °F 30.1 in Sur 2.4 mph 4.7 mph 77% 0 in
07:09 61.2 °F 54.1 °F 30.1 in Sur 2.4 mph 4.3 mph 78% 0 in
07:14 61.3 °F 54.7 °F 30.1 in SSO 2.4 mph 4.6 mph 78.8% 0 in
07:19 61.5 °F 55 °F 30.1 in SSO 2.4 mph 5.2 mph 79.2% 0 in
07:24 61.9 °F 55.6 °F 30.1 in SSO 3 mph 4.7 mph 79.9% 0 in
07:29 62.1 °F 55.4 °F 30.1 in SE 3.1 mph 4.3 mph 79% 0 in
07:34 62.1 °F 55.6 °F 30.1 in SSE 2.5 mph 5.9 mph 79% 0 in
07:39 62.1 °F 55.6 °F 30.1 in Sur 2.4 mph 5.9 mph 79% 0 in
07:44 62.1 °F 55.6 °F 30.1 in SSE 3.9 mph 5.8 mph 79% 0 in
07:49 62.1 °F 55.4 °F 30.1 in SSE 4 mph 4.6 mph 78.5% 0 in
07:54 62.2 °F 55.6 °F 30.1 in Sur 3 mph 3.6 mph 78.6% 0 in
07:59 62.4 °F 55.8 °F 30.1 in SSO 2.9 mph 3.5 mph 79% 0 in
08:04 62.6 °F 56.1 °F 30.1 in Sur 2.1 mph 4.6 mph 78.9% 0 in
08:09 63 °F 56.1 °F 30.1 in Este 2 mph 3.5 mph 78.3% 0 in
08:14 63.1 °F 56.1 °F 30.1 in Este 1.8 mph 2.9 mph 77.7% 0 in
08:19 63.7 °F 55.9 °F 30.1 in NE 1.8 mph 4.6 mph 75.9% 0 in
08:24 63.9 °F 55.8 °F 30.1 in NE 2 mph 3.5 mph 75% 0 in
08:29 64 °F 55.9 °F 30.1 in NE 2 mph 2.9 mph 74.7% 0 in
08:34 64.4 °F 56.1 °F 30.1 in ESE 1.5 mph 2.9 mph 74.5% 0 in
08:39 64.6 °F 56.5 °F 30.1 in SSO 1.4 mph 6.2 mph 75% 0 in
08:44 64.6 °F 56.7 °F 30.1 in SSO 2.7 mph 6.9 mph 75.6% 0 in
08:49 64.6 °F 56.8 °F 30.1 in SSO 2.9 mph 4.6 mph 76% 0 in
08:54 64.8 °F 57 °F 30.1 in SSE 2.9 mph 4.6 mph 76% 0 in
08:59 65.1 °F 57 °F 30.1 in Sur 2.9 mph 6.2 mph 75.1% 0 in
09:04 65.1 °F 57 °F 30.1 in SSO 3.1 mph 5.9 mph 75.2% 0 in
09:09 65.1 °F 57 °F 30.1 in SSO 3.1 mph 6.9 mph 75% 0 in
09:14 65.3 °F 57.2 °F 30.1 in SSO 3.9 mph 5.9 mph 75.2% 0 in
09:19 65.5 °F 57.4 °F 30.1 in SO 4 mph 6.9 mph 75% 0 in
09:24 65.7 °F 57.6 °F 30.1 in SO 3.7 mph 5.9 mph 75% 0 in
09:29 65.8 °F 57.4 °F 30.1 in SSO 3.6 mph 5.9 mph 74.2% 0 in
09:34 65.8 °F 57.7 °F 30.1 in Sur 4 mph 4.7 mph 74.7% 0 in
09:39 66.2 °F 57.7 °F 30.1 in Sur 4 mph 4.6 mph 74.2% 0 in
09:44 66.7 °F 57.9 °F 30.1 in SSE 3 mph 4.7 mph 73.3% 0 in
09:49 67.1 °F 57.9 °F 30.1 in OSO 2.9 mph 5.8 mph 72.3% 0 in
09:54 67.5 °F 57.9 °F 30.1 in Oeste 2.9 mph 5.8 mph 71.8% 0 in
09:59 67.8 °F 58.1 °F 30.1 in SO 2.9 mph 6.2 mph 70.9% 0 in
10:04 68.4 °F 58.1 °F 30.1 in SSE 2.9 mph 5.8 mph 70% 0 in
10:09 68.5 °F 57.9 °F 30.1 in Sur 2.9 mph 5.4 mph 69% 0 in
10:14 68.7 °F 57.7 °F 30.1 in Sur 2.9 mph 5.8 mph 67.8% 0 in
10:19 69.1 °F 57.7 °F 30.1 in SSO 2.9 mph 3.6 mph 67% 0 in
10:24 69.6 °F 57.9 °F 30.1 in Sur 1.9 mph 4.6 mph 66.2% 0 in
10:29 70.3 °F 57.9 °F 30.1 in ENE 1.8 mph 4.6 mph 65% 0 in
10:34 70.9 °F 58.1 °F 30.1 in NE 2 mph 4.6 mph 64.1% 0 in
10:39 71.2 °F 57.9 °F 30.1 in ESE 2 mph 4.7 mph 62.8% 0 in
10:44 71.4 °F 57.6 °F 30.1 in ENE 2.4 mph 5.2 mph 61.5% 0 in
10:49 71.4 °F 57.4 °F 30.1 in Este 2.4 mph 5.2 mph 61.3% 0 in
10:54 71.8 °F 57.2 °F 30.1 in North 2.4 mph 3.5 mph 60.2% 0 in
10:59 72.3 °F 57.2 °F 30.1 in NNE 2.4 mph 4.6 mph 59.1% 0 in
11:04 73 °F 57.6 °F 30.1 in Este 2 mph 4.6 mph 58.5% 0 in
11:09 73.8 °F 57.2 °F 30.1 in ENE 2 mph 7.4 mph 56.3% 0 in
11:14 73.9 °F 56.8 °F 30.1 in NE 3 mph 8.1 mph 55% 0 in
11:19 74.1 °F 56.8 °F 30.1 in NE 3.1 mph 6.9 mph 55% 0 in
11:24 74.3 °F 56.8 °F 30.1 in NNE 3.5 mph 9.2 mph 54.7% 0 in
11:29 74.1 °F 55.9 °F 30.1 in NE 3.6 mph 9.2 mph 53% 0 in
11:34 73.9 °F 55.6 °F 30.1 in NE 4.6 mph 9.2 mph 52.8% 0 in
11:39 74.1 °F 56.1 °F 30.1 in NNE 4.7 mph 8.5 mph 53.4% 0 in
11:44 74.5 °F 55.6 °F 30.1 in NNE 4.7 mph 10.4 mph 51.8% 0 in
11:49 74.7 °F 56.1 °F 30.1 in NE 4.7 mph 9.2 mph 52.5% 0 in
11:54 75 °F 55.4 °F 30.1 in NE 5.2 mph 11.5 mph 50.6% 0 in
11:59 75.2 °F 55.8 °F 30.1 in NNE 5.2 mph 8.1 mph 50.9% 0 in
12:04 75.6 °F 56.1 °F 30.1 in NNE 5.2 mph 9.2 mph 50.8% 0 in
12:09 75.9 °F 55.2 °F 30.1 in NNE 5.2 mph 10.4 mph 48.5% 0 in
12:14 76.5 °F 55 °F 30.1 in NE 4.7 mph 9.2 mph 47.6% 0 in
12:19 76.5 °F 54.7 °F 30.1 in NNE 4.7 mph 8.1 mph 47% 0 in
12:24 76.6 °F 54.1 °F 30.1 in NE 4.7 mph 9.7 mph 45.9% 0 in
12:29 77.2 °F 54.5 °F 30.1 in NE 4.7 mph 8.1 mph 45.4% 0 in
12:34 77.9 °F 55.2 °F 30.1 in NE 4.1 mph 9.2 mph 45.8% 0 in
12:39 78.1 °F 55 °F 30.1 in NNE 4 mph 10.7 mph 45.1% 0 in
12:44 78.1 °F 55.8 °F 30.1 in NE 4.6 mph 11.5 mph 46.5% 0 in
12:49 77.9 °F 56.1 °F 30.1 in North 4.7 mph 8.1 mph 47.2% 0 in
12:54 78.3 °F 55.2 °F 30.1 in NE 5.3 mph 8.1 mph 45.2% 0 in
12:59 78.6 °F 54.1 °F 30.1 in NE 5.4 mph 10.2 mph 42.7% 0 in
13:04 79.2 °F 53.6 °F 30.1 in NE 5.9 mph 13.8 mph 41.3% 0 in
13:09 79.3 °F 53.8 °F 30.1 in NE 5.9 mph 10.4 mph 41.3% 0 in
13:14 79.3 °F 54.1 °F 30.1 in NE 5.9 mph 11.5 mph 41.7% 0 in
13:19 79.5 °F 54.7 °F 30.1 in NE 5.9 mph 12.3 mph 42.5% 0 in
13:24 79.5 °F 55.2 °F 30.1 in NE 5.9 mph 12.7 mph 43% 0 in
13:29 80.1 °F 55.6 °F 30.1 in NNE 5.9 mph 12.7 mph 43.2% 0 in
13:34 80.1 °F 55.9 °F 30.1 in ENE 6.2 mph 9.7 mph 43.5% 0 in
13:39 80.2 °F 55.9 °F 30.1 in NE 6.2 mph 11.5 mph 43.5% 0 in
13:44 80.4 °F 55.8 °F 30.1 in NE 6 mph 12.7 mph 42.8% 0 in
13:49 80.6 °F 55.9 °F 30.1 in NE 5.9 mph 10.4 mph 42.8% 0 in
13:54 81.1 °F 55.8 °F 30.1 in ENE 5.9 mph 10.4 mph 41.8% 0 in
13:59 81.7 °F 55.4 °F 30.1 in ENE 5.9 mph 10.4 mph 40.5% 0 in
14:04 81.9 °F 55.6 °F 30 in ENE 5.4 mph 12.5 mph 40.4% 0 in
14:09 82 °F 54.9 °F 30 in NE 5.4 mph 12.7 mph 39.3% 0 in
14:14 81.9 °F 54.9 °F 30 in NE 6.3 mph 13.8 mph 39.4% 0 in
14:19 81.9 °F 54.5 °F 30 in NE 6.4 mph 13.8 mph 39% 0 in
14:24 81.7 °F 54.3 °F 30 in NE 8.3 mph 15.2 mph 39% 0 in
14:29 81.9 °F 54.3 °F 30 in NE 8.5 mph 12.7 mph 39% 0 in
14:34 82 °F 54.1 °F 30 in NE 7.7 mph 16.1 mph 38.4% 0 in
14:39 82 °F 54 °F 30 in NE 7.6 mph 17.3 mph 38% 0 in
14:44 81.9 °F 54 °F 30 in NE 8.6 mph 12.7 mph 38.1% 0 in
14:49 82 °F 53.6 °F 30 in NE 8.7 mph 18.5 mph 37.5% 0 in
14:54 81.7 °F 53.1 °F 30 in NE 8.7 mph 17.3 mph 37.2% 0 in
14:59 81.7 °F 53.2 °F 30 in NE 8.7 mph 16.1 mph 37.5% 0 in
15:04 81.9 °F 52.5 °F 30 in NE 8.1 mph 14 mph 36.3% 0 in
15:09 82 °F 52 °F 30 in NE 8.1 mph 15 mph 35.4% 0 in
15:14 81.9 °F 51.6 °F 30 in NE 8.1 mph 19.2 mph 35.1% 0 in
15:19 81.5 °F 51.4 °F 30 in NE 8.1 mph 19.6 mph 35.3% 0 in
15:24 81.9 °F 51.8 °F 30 in NE 9.1 mph 13.8 mph 35.4% 0 in
15:29 82.6 °F 51.4 °F 30 in ENE 9.2 mph 11.8 mph 34.1% 0 in
15:34 82.8 °F 51.4 °F 30 in Este 7.1 mph 13.8 mph 34% 0 in
15:39 82.8 °F 50.9 °F 30 in NE 6.9 mph 15.2 mph 33.2% 0 in
15:44 82.9 °F 50.5 °F 30 in ENE 7.3 mph 16.1 mph 32.7% 0 in
15:49 82.9 °F 50.5 °F 30 in NE 7.4 mph 15 mph 32.7% 0 in
15:54 82.9 °F 50.2 °F 30 in NE 7.4 mph 13.8 mph 32.3% 0 in
15:59 82.9 °F 50 °F 30 in NE 7.4 mph 12.7 mph 32% 0 in
16:04 82.8 °F 49.6 °F 30 in NE 6.9 mph 15 mph 31.7% 0 in
16:09 82.6 °F 49.5 °F 30 in NE 6.9 mph 15 mph 31.7% 0 in
16:14 82.6 °F 49.6 °F 30 in NE 7.5 mph 13.8 mph 31.9% 0 in
16:19 82.6 °F 49.5 °F 30 in NE 7.6 mph 15 mph 31.7% 0 in
16:24 82.6 °F 48.7 °F 30 in NE 7.6 mph 15.2 mph 31% 0 in
16:29 82.2 °F 48.6 °F 30 in NE 7.6 mph 16.1 mph 31% 0 in
16:34 82 °F 48.6 °F 30 in NE 9 mph 15.6 mph 31.1% 0 in
16:39 81.9 °F 48.4 °F 30 in NE 9.2 mph 18.4 mph 31.1% 0 in
16:44 81.7 °F 48.6 °F 30 in NE 9.9 mph 16.1 mph 31.6% 0 in
16:49 81.5 °F 48.4 °F 30 in NE 10 mph 19 mph 31.7% 0 in
16:54 81.3 °F 48.6 °F 30 in NE 10.2 mph 15.2 mph 32% 0 in
16:59 81.3 °F 48.6 °F 30 in ENE 10.2 mph 15 mph 32% 0 in
17:04 81.7 °F 48.4 °F 30 in NE 7.5 mph 15.2 mph 31.5% 0 in
17:09 81.3 °F 48.4 °F 30 in NE 7.4 mph 13.8 mph 31.8% 0 in
17:14 81.7 °F 48.2 °F 30 in NE 7.6 mph 13.8 mph 31.2% 0 in
17:19 81.7 °F 48.2 °F 30 in NE 7.6 mph 13.5 mph 31% 0 in
17:24 81.9 °F 48.6 °F 30 in NE 7.6 mph 13.8 mph 31.4% 0 in
17:29 81.9 °F 48.2 °F 30 in NE 7.6 mph 15.2 mph 31% 0 in
17:34 81.3 °F 47.3 °F 30 in NE 7.6 mph 16.1 mph 30.3% 0 in
17:39 81.1 °F 46.9 °F 30 in NE 7.6 mph 15.2 mph 30.2% 0 in
17:44 81.1 °F 46.8 °F 30 in NE 9 mph 15 mph 30% 0 in
17:49 81.1 °F 46.6 °F 30 in NE 9.2 mph 16.1 mph 29.7% 0 in
17:54 81 °F 46 °F 30 in NE 8.6 mph 16.1 mph 29.2% 0 in
17:59 81 °F 45.7 °F 30 in NE 8.5 mph 16.1 mph 29% 0 in
18:04 80.6 °F 45.5 °F 30 in NE 8.7 mph 16.1 mph 29.2% 0 in
18:09 80.2 °F 45.1 °F 30 in NE 8.7 mph 16.1 mph 29% 0 in
18:14 80.1 °F 45 °F 30 in NE 8.7 mph 16.1 mph 29% 0 in
18:19 80.1 °F 45 °F 30 in NE 8.7 mph 15 mph 29% 0 in
18:24 80.2 °F 45.1 °F 30 in NE 8.7 mph 11.8 mph 29% 0 in
18:29 80.4 °F 45 °F 30 in NNE 8.7 mph 13.8 mph 28.8% 0 in
18:34 80.1 °F 45 °F 30 in NE 7.1 mph 14 mph 29% 0 in
18:39 79.5 °F 44.6 °F 30 in NE 6.9 mph 14 mph 29% 0 in
18:44 79.3 °F 45.1 °F 30 in NE 8.3 mph 15 mph 29.9% 0 in
18:49 79.2 °F 45.1 °F 30 in NE 8.5 mph 15 mph 30% 0 in
18:54 79 °F 45.3 °F 30 in NE 9.6 mph 13.8 mph 30.5% 0 in
18:59 78.8 °F 45.7 °F 30 in NE 9.7 mph 14 mph 31% 0 in
19:04 78.4 °F 45.3 °F 30 in NE 8.1 mph 15.2 mph 31% 0 in
19:09 78.4 °F 45.3 °F 30 in NE 8.1 mph 15 mph 31.1% 0 in
19:14 78.3 °F 45.1 °F 30 in NE 7.6 mph 13.8 mph 31% 0 in
19:19 78.3 °F 45.1 °F 30 in NE 7.6 mph 12.7 mph 31% 0 in
19:24 77.9 °F 45 °F 30 in NE 8.1 mph 14 mph 31.2% 0 in
19:29 78.1 °F 45.7 °F 30 in NE 8.1 mph 13.8 mph 31.8% 0 in
19:34 77.9 °F 45.7 °F 30 in NE 7.6 mph 13.8 mph 31.9% 0 in
19:39 77.7 °F 45.5 °F 30 in NE 7.6 mph 12.7 mph 32% 0 in
19:44 77.5 °F 45.5 °F 30 in NE 7.4 mph 14 mph 32% 0 in
19:49 77.5 °F 45.3 °F 30 in NE 7.4 mph 12.7 mph 32% 0 in
19:54 77.4 °F 45.3 °F 30 in NNE 7.4 mph 11.5 mph 32.1% 0 in
19:59 77.2 °F 45 °F 30 in NE 7.4 mph 11.8 mph 32% 0 in
20:04 76.8 °F 44.8 °F 30 in NNE 6.9 mph 13.8 mph 32% 0 in
20:09 76.6 °F 44.4 °F 30 in NE 6.9 mph 12.7 mph 32% 0 in
20:14 76.5 °F 44.4 °F 30 in NE 7.3 mph 11.5 mph 32% 0 in
20:19 76.3 °F 44.1 °F 30 in NE 7.4 mph 15 mph 32% 0 in
20:24 75.9 °F 43.9 °F 30 in NE 7 mph 11.8 mph 32% 0 in
20:29 75.7 °F 43.9 °F 30 in NE 6.9 mph 11.5 mph 32% 0 in
20:34 75.6 °F 43.9 °F 30 in NE 6.5 mph 9.2 mph 32.4% 0 in
20:39 75.4 °F 44.4 °F 30 in NE 6.4 mph 9.2 mph 33.2% 0 in
20:44 75 °F 44.8 °F 30 in NE 6 mph 9.2 mph 34.1% 0 in
20:49 74.7 °F 45.3 °F 30 in NE 5.9 mph 7.6 mph 35.2% 0 in
20:54 74.3 °F 45.9 °F 30 in NE 4.8 mph 9.2 mph 36.3% 0 in
20:59 73.9 °F 46.2 °F 30 in NE 4.7 mph 9.7 mph 37.3% 0 in
21:04 73.8 °F 46.6 °F 30 in NE 5.2 mph 10.2 mph 38% 0 in
21:09 73.2 °F 46.8 °F 30 in NE 5.2 mph 10.4 mph 38.9% 0 in
21:14 73 °F 46.6 °F 30 in NE 5.8 mph 10.7 mph 39% 0 in
21:19 72.9 °F 46.6 °F 30 in NE 5.9 mph 11.4 mph 39.3% 0 in
21:24 72.3 °F 46.6 °F 30 in NE 6.2 mph 11.5 mph 39.9% 0 in
21:29 72.1 °F 46 °F 30 in NNE 6.2 mph 9.2 mph 39.6% 0 in
21:34 72 °F 46.8 °F 30 in NE 5.9 mph 8.5 mph 40.8% 0 in
21:39 71.8 °F 47.1 °F 30 in NE 5.9 mph 8.1 mph 41.6% 0 in
21:44 71.4 °F 47.7 °F 30 in NE 4.8 mph 8.1 mph 42.8% 0 in
21:49 71.2 °F 48.2 °F 30 in NE 4.7 mph 6.9 mph 43.9% 0 in
21:54 71.1 °F 48.4 °F 30 in NE 4.7 mph 8.1 mph 44.8% 0 in
21:59 70.9 °F 48.9 °F 30 in NE 4.7 mph 8.1 mph 45.8% 0 in
22:04 70.7 °F 48.9 °F 30 in NE 4.7 mph 8.5 mph 46% 0 in
22:09 70.7 °F 49.3 °F 30 in NE 4.7 mph 8.5 mph 46.6% 0 in
22:14 70.7 °F 49.5 °F 30 in NE 4.7 mph 8.1 mph 47.2% 0 in
22:19 70.5 °F 49.8 °F 30 in NE 4.7 mph 7.4 mph 48% 0 in
22:24 70.5 °F 50.4 °F 30 in NE 4.7 mph 5.9 mph 48.9% 0 in
22:29 70.3 °F 50.5 °F 30 in NE 4.7 mph 5.8 mph 49.5% 0 in
22:34 70.3 °F 50.7 °F 30 in NE 3.2 mph 5.9 mph 50% 0 in
22:39 70.2 °F 50.7 °F 30 in NNE 3.1 mph 5.8 mph 50.3% 0 in
22:44 70 °F 50.9 °F 30 in NE 3.1 mph 5.9 mph 51% 0 in
22:49 69.6 °F 51.3 °F 30 in NE 3.1 mph 4.6 mph 51.9% 0 in
22:54 69.6 °F 51.3 °F 30 in NE 2.9 mph 4.7 mph 52% 0 in
22:59 69.4 °F 51.1 °F 30 in NE 2.9 mph 4.7 mph 52.1% 0 in
23:04 69.3 °F 51.4 °F 30 in NE 2.9 mph 4.6 mph 53% 0 in
23:09 69.1 °F 51.3 °F 30 in NE 2.9 mph 5.8 mph 53% 0 in
23:14 69.1 °F 51.6 °F 30 in North 2.1 mph 4.6 mph 53.8% 0 in
23:19 68.7 °F 51.6 °F 30 in NNO 2 mph 3.5 mph 54.1% 0 in
23:24 68.7 °F 51.8 °F 30 in North 1.8 mph 4.6 mph 55% 0 in
23:29 68.5 °F 52 °F 30 in NNE 1.8 mph 3.6 mph 55.8% 0 in
23:34 68.4 °F 52 °F 30 in NNE 2 mph 3.5 mph 56.2% 0 in
Murcia-Puente Tocinos, Espa?a
Compliments of Weather Underground - 3 mb

La estación de MeteoMurcia.com, publica sus datos en los siguientes proyectos:

Weather Underground PWS IMURCIAP2 Meteoclimatic www.awekas.at

W3Counter
Web Analytics